createdAt,value
2023-03-11T00:00:04.887Z,23.33
2023-03-11T00:01:04.858Z,23.34
2023-03-11T00:02:04.882Z,23.34
2023-03-11T00:03:04.825Z,23.35
2023-03-11T00:04:04.818Z,23.33
2023-03-11T00:05:04.833Z,23.35
2023-03-11T00:06:04.797Z,23.34
2023-03-11T00:07:04.769Z,23.34
2023-03-11T00:08:04.783Z,23.35
2023-03-11T00:09:04.734Z,23.35
2023-03-11T00:10:04.718Z,23.35
2023-03-11T00:11:04.706Z,23.34
2023-03-11T00:12:04.689Z,23.33
2023-03-11T00:13:04.672Z,23.33
2023-03-11T00:14:04.672Z,23.34
2023-03-11T00:15:04.640Z,23.33
2023-03-11T00:16:04.628Z,23.33
2023-03-11T00:17:04.612Z,23.33
2023-03-11T00:18:04.618Z,23.34
2023-03-11T00:19:04.602Z,23.34
2023-03-11T00:20:04.582Z,23.34
2023-03-11T00:21:04.562Z,23.34
2023-03-11T00:22:04.535Z,23.35
2023-03-11T00:23:04.520Z,23.34
2023-03-11T00:24:04.505Z,23.34
2023-03-11T00:25:04.493Z,23.33
2023-03-11T00:26:04.489Z,23.34
2023-03-11T00:27:04.462Z,23.34
2023-03-11T00:28:04.439Z,23.34
2023-03-11T00:29:04.426Z,23.34
2023-03-11T00:30:04.406Z,23.35
2023-03-11T00:31:04.482Z,23.35
2023-03-11T00:32:04.372Z,23.36
2023-03-11T00:33:04.360Z,23.35
2023-03-11T00:34:04.340Z,23.34
2023-03-11T00:35:04.328Z,23.34
2023-03-11T00:36:04.416Z,23.34
2023-03-11T00:37:04.302Z,23.35
2023-03-11T00:38:04.275Z,23.35
2023-03-11T00:39:04.267Z,23.36
2023-03-11T00:40:04.245Z,23.36
2023-03-11T00:41:04.243Z,23.37
2023-03-11T00:42:04.224Z,23.37
2023-03-11T00:43:04.204Z,23.35
2023-03-11T00:44:04.176Z,23.36
2023-03-11T00:45:04.155Z,23.36
2023-03-11T00:46:04.188Z,23.35
2023-03-11T00:47:04.156Z,23.35
2023-03-11T00:48:04.100Z,23.34
2023-03-11T00:49:04.097Z,23.33
2023-03-11T00:50:04.084Z,23.34
2023-03-11T00:51:04.061Z,23.34
2023-03-11T00:52:04.083Z,23.34
2023-03-11T00:53:04.020Z,23.32
2023-03-11T00:54:04.006Z,23.33
2023-03-11T00:55:04.041Z,23.33
2023-03-11T00:56:03.985Z,23.32
2023-03-11T00:57:03.975Z,23.33
2023-03-11T00:58:03.960Z,23.33
2023-03-11T00:59:03.892Z,23.33
2023-03-11T01:00:03.871Z,23.33
2023-03-11T01:01:03.879Z,23.33
2023-03-11T01:02:03.849Z,23.33
2023-03-11T01:03:03.863Z,23.32
2023-03-11T01:04:03.806Z,23.33
2023-03-11T01:05:03.806Z,23.32
2023-03-11T01:06:03.781Z,23.32
2023-03-11T01:07:03.776Z,23.32
2023-03-11T01:08:03.796Z,23.33
2023-03-11T01:09:03.786Z,23.34
2023-03-11T01:10:03.782Z,23.33
2023-03-11T01:11:03.740Z,23.33
2023-03-11T01:12:03.708Z,23.32
2023-03-11T01:13:03.749Z,23.32
2023-03-11T01:14:03.734Z,23.33
2023-03-11T01:15:03.723Z,23.33
2023-03-11T01:16:03.711Z,23.33
2023-03-11T01:17:03.675Z,23.32
2023-03-11T01:18:03.626Z,23.33
2023-03-11T01:19:03.613Z,23.34
2023-03-11T01:20:03.599Z,23.33
2023-03-11T01:21:03.590Z,23.32
2023-03-11T01:22:03.590Z,23.33
2023-03-11T01:23:03.565Z,23.32
2023-03-11T01:24:03.564Z,23.31
2023-03-11T01:25:03.549Z,23.31
2023-03-11T01:26:03.536Z,23.32
2023-03-11T01:27:03.536Z,23.32
2023-03-11T01:28:03.512Z,23.31
2023-03-11T01:29:03.501Z,23.32
2023-03-11T01:30:03.508Z,23.33
2023-03-11T01:31:03.525Z,23.34
2023-03-11T01:32:03.482Z,23.34
2023-03-11T01:33:03.469Z,23.35
2023-03-11T01:34:03.455Z,23.36
2023-03-11T01:35:03.447Z,23.35
2023-03-11T01:36:03.487Z,23.35
2023-03-11T01:37:03.451Z,23.35
2023-03-11T01:38:03.436Z,23.35
2023-03-11T01:39:03.400Z,23.35
2023-03-11T01:40:03.413Z,23.35
2023-03-11T01:41:03.384Z,23.35
2023-03-11T01:42:03.402Z,23.35
2023-03-11T01:43:03.365Z,23.36
2023-03-11T01:44:03.352Z,23.35
2023-03-11T01:45:03.347Z,23.35
2023-03-11T01:46:03.377Z,23.36
2023-03-11T01:47:03.304Z,23.36
2023-03-11T01:48:03.298Z,23.35
2023-03-11T01:49:03.284Z,23.35
2023-03-11T01:50:03.275Z,23.35
2023-03-11T01:51:03.252Z,23.34
2023-03-11T01:52:03.231Z,23.33
2023-03-11T01:53:03.230Z,23.33
2023-03-11T01:54:03.213Z,23.34
2023-03-11T01:55:03.195Z,23.34
2023-03-11T01:56:03.171Z,23.33
2023-03-11T01:57:03.148Z,23.34
2023-03-11T01:58:03.141Z,23.34
2023-03-11T01:59:03.125Z,23.34
2023-03-11T02:00:03.108Z,23.33
2023-03-11T02:01:03.111Z,23.34
2023-03-11T02:02:03.191Z,23.35
2023-03-11T02:03:03.121Z,23.34
2023-03-11T02:04:03.057Z,23.35
2023-03-11T02:05:03.048Z,23.35
2023-03-11T02:06:03.039Z,23.34
2023-03-11T02:07:03.019Z,23.35
2023-03-11T02:08:03.019Z,23.34
2023-03-11T02:09:03.010Z,23.35
2023-03-11T02:10:03.001Z,23.35
2023-03-11T02:11:02.988Z,23.36
2023-03-11T02:12:02.978Z,23.35
2023-03-11T02:13:02.950Z,23.34
2023-03-11T02:14:02.928Z,23.34
2023-03-11T02:15:02.919Z,23.34
2023-03-11T02:16:02.970Z,23.33
2023-03-11T02:17:02.894Z,23.32
2023-03-11T02:18:02.874Z,23.32
2023-03-11T02:19:02.870Z,23.33
2023-03-11T02:20:02.839Z,23.32
2023-03-11T02:21:02.845Z,23.32
2023-03-11T02:22:02.816Z,23.31
2023-03-11T02:23:02.808Z,23.33
2023-03-11T02:24:02.795Z,23.32
2023-03-11T02:25:02.770Z,23.33
2023-03-11T02:26:02.759Z,23.33
2023-03-11T02:40:02.574Z,23.31
2023-03-11T02:41:02.568Z,23.31
2023-03-11T02:42:02.550Z,23.30
2023-03-11T02:43:02.514Z,23.29
2023-03-11T02:44:02.512Z,23.30
2023-03-11T02:45:02.497Z,23.30
2023-03-11T02:46:02.469Z,23.30
2023-03-11T02:47:02.535Z,23.30
2023-03-11T02:48:02.413Z,23.29
2023-03-11T02:49:02.403Z,23.30
2023-03-11T10:44:54.460Z,25.66
2023-03-11T10:46:54.400Z,25.71
2023-03-11T10:48:54.352Z,25.70
2023-03-11T10:49:54.329Z,25.71
2023-03-11T10:50:54.296Z,25.73
2023-03-11T10:51:54.275Z,25.71
2023-03-11T10:52:54.242Z,25.70
2023-03-11T10:53:54.242Z,25.72
2023-03-11T10:54:54.208Z,25.75
2023-03-11T10:55:54.179Z,25.77
2023-03-11T10:56:54.149Z,25.80
2023-03-11T10:57:54.131Z,25.82
2023-03-11T10:58:54.090Z,25.84
2023-03-11T10:59:54.072Z,25.87
2023-03-11T11:00:54.047Z,25.88
2023-03-11T11:01:54.018Z,25.89
2023-03-11T11:02:53.987Z,25.92
2023-03-11T11:03:54.053Z,25.93
2023-03-11T11:04:53.947Z,25.92
2023-03-11T11:05:53.922Z,25.92
2023-03-11T11:06:53.888Z,25.94
2023-03-11T11:07:53.860Z,25.95
2023-03-11T11:08:53.839Z,25.96
2023-03-11T11:09:53.837Z,25.96
2023-03-11T11:10:53.791Z,25.98
2023-03-11T11:11:53.746Z,25.99
2023-03-11T11:12:53.715Z,26.00
2023-03-11T11:13:53.696Z,26.01
2023-03-11T11:14:53.668Z,26.02
2023-03-11T11:15:53.667Z,26.04
2023-03-11T11:16:53.699Z,26.05
2023-03-11T11:17:53.626Z,26.07
2023-03-11T11:18:53.589Z,26.08
2023-03-11T11:19:53.557Z,26.09
2023-03-11T11:20:53.536Z,26.09
2023-03-11T11:21:53.506Z,26.11
2023-03-11T11:22:53.491Z,26.13
2023-03-11T11:23:54.009Z,26.15
2023-03-11T11:24:53.587Z,26.16
2023-03-11T11:25:53.419Z,26.19
2023-03-11T11:26:53.396Z,26.21
2023-03-11T11:27:53.367Z,26.21
2023-03-11T11:28:53.347Z,26.24
2023-03-11T11:29:53.314Z,26.20
2023-03-11T11:30:53.313Z,26.19
2023-03-11T11:31:53.271Z,26.19
2023-03-11T11:32:53.267Z,26.18
2023-03-11T11:33:53.206Z,26.15
2023-03-11T11:34:53.171Z,26.09
2023-03-11T11:35:53.189Z,26.03
2023-03-11T11:36:53.119Z,25.96
2023-03-11T11:37:53.105Z,25.90
2023-03-11T11:38:53.079Z,25.87
2023-03-11T11:39:53.055Z,25.90
2023-03-11T11:40:53.035Z,25.92
2023-03-11T11:41:52.999Z,25.90
2023-03-11T11:42:52.977Z,25.86
2023-03-11T11:43:52.966Z,25.89
2023-03-11T11:44:52.937Z,25.93
2023-03-11T11:45:52.994Z,25.96
2023-03-11T11:46:52.898Z,25.98
2023-03-11T11:47:52.872Z,25.99
2023-03-11T11:48:52.830Z,25.98
2023-03-11T11:49:52.825Z,26.00
2023-03-11T11:50:52.798Z,25.97
2023-03-11T11:51:52.762Z,25.90
2023-03-11T11:52:52.737Z,25.82
2023-03-11T11:53:52.734Z,25.78
2023-03-11T11:54:52.701Z,25.74
2023-03-11T11:55:52.691Z,25.71
2023-03-11T11:56:52.648Z,25.69
2023-03-11T11:57:52.629Z,25.67
2023-03-11T11:58:52.592Z,25.65
2023-03-11T11:59:52.573Z,25.63
2023-03-11T12:00:52.545Z,25.60
2023-03-11T12:01:52.515Z,25.58
2023-03-11T12:02:52.496Z,25.58
2023-03-11T12:03:52.519Z,25.59
2023-03-11T12:04:52.429Z,25.57
2023-03-11T12:05:52.496Z,25.55
2023-03-11T15:50:52.928Z,25.97
2023-03-11T15:51:47.669Z,25.95
2023-03-11T15:52:46.646Z,25.94
2023-03-11T15:53:46.625Z,25.93
2023-03-11T15:54:55.072Z,25.93
2023-03-11T15:55:47.587Z,25.91
2023-03-11T15:56:46.563Z,25.91
2023-03-11T15:57:46.540Z,25.90
2023-03-11T15:58:46.511Z,25.88
2023-03-11T15:59:46.489Z,25.88
2023-03-11T16:00:46.469Z,25.88
2023-03-11T16:01:46.447Z,25.86
2023-03-11T16:02:46.425Z,25.85
2023-03-11T16:03:46.530Z,25.84
2023-03-11T16:04:46.497Z,25.84
2023-03-11T16:05:46.365Z,25.83
2023-03-11T16:06:49.587Z,25.82
2023-03-11T16:07:46.319Z,25.80
2023-03-11T16:08:46.304Z,25.80
2023-03-11T16:09:46.289Z,25.79
2023-03-11T16:10:46.275Z,25.78
2023-03-11T16:11:46.264Z,25.78
2023-03-11T16:12:46.234Z,25.77
2023-03-11T16:13:46.205Z,25.76
2023-03-11T16:14:46.209Z,25.75
2023-03-11T16:15:46.203Z,25.75
2023-03-11T16:16:46.146Z,25.74
2023-03-11T16:17:49.691Z,25.72
2023-03-11T16:18:46.103Z,25.72
2023-03-11T16:19:47.999Z,25.72
2023-03-11T16:20:46.065Z,25.71
2023-03-11T16:21:46.037Z,25.70
2023-03-11T16:22:46.043Z,25.69
2023-03-11T16:23:51.879Z,25.68
2023-03-11T16:24:47.015Z,25.66
2023-03-11T16:25:45.967Z,25.65
2023-03-11T16:26:45.944Z,25.65
2023-03-11T16:27:45.915Z,25.64
2023-03-11T16:28:45.898Z,25.63
2023-03-11T16:29:45.879Z,25.62
2023-03-11T16:30:45.856Z,25.61
2023-03-11T16:31:45.830Z,25.61
2023-03-11T16:32:45.865Z,25.60
2023-03-11T16:33:45.796Z,25.60
2023-03-11T16:34:45.769Z,25.58
2023-03-11T16:35:45.826Z,25.58
2023-03-11T16:36:45.723Z,25.58
2023-03-11T16:37:45.701Z,25.57
2023-03-11T16:38:45.691Z,25.56
2023-03-11T16:39:45.660Z,25.54
2023-03-11T16:40:45.645Z,25.54
2023-03-11T16:41:45.618Z,25.53
2023-03-11T16:42:45.591Z,25.52
2023-03-11T16:43:45.567Z,25.51
2023-03-11T16:44:45.548Z,25.50
2023-03-11T16:45:45.523Z,25.49
2023-03-11T16:46:45.541Z,25.48
2023-03-11T16:47:45.474Z,25.47
2023-03-11T16:48:45.435Z,25.47
2023-03-11T16:49:45.411Z,25.46
2023-03-11T16:50:45.406Z,25.44
2023-03-11T16:51:45.359Z,25.43
2023-03-11T16:52:45.338Z,25.43
2023-03-11T16:53:45.314Z,25.42
2023-03-11T16:54:45.307Z,25.41
2023-03-11T16:55:45.263Z,25.41
2023-03-11T16:56:45.244Z,25.39
2023-03-11T16:57:45.227Z,25.39
2023-03-11T16:58:45.189Z,25.38
2023-03-11T16:59:45.163Z,25.37
2023-03-11T17:00:45.153Z,25.36
2023-03-11T17:01:45.246Z,25.36
2023-03-11T17:02:45.145Z,25.36
2023-03-11T17:03:45.093Z,25.35
2023-03-11T17:04:45.105Z,25.33
2023-03-11T17:05:45.058Z,25.32
2023-03-11T17:06:45.032Z,25.32
2023-03-11T17:07:45.013Z,25.31
2023-03-11T17:08:44.991Z,25.31
2023-03-11T17:09:44.970Z,25.31
2023-03-11T17:10:44.962Z,25.29
2023-03-11T17:11:44.931Z,25.28
2023-03-11T17:12:44.902Z,25.27
2023-03-11T17:13:44.898Z,25.27
2023-03-11T17:14:44.866Z,25.27
2023-03-11T17:15:44.846Z,25.26
2023-03-11T17:16:44.842Z,25.26
2023-03-11T17:17:44.821Z,25.24
2023-03-11T17:18:44.780Z,25.24
2023-03-11T17:19:44.765Z,25.23
2023-03-11T17:20:44.743Z,25.22
2023-03-11T17:21:44.732Z,25.21
2023-03-11T17:22:44.702Z,25.21
2023-03-11T17:23:44.694Z,25.21
2023-03-11T17:26:44.619Z,25.18
2023-03-11T17:27:44.601Z,25.18
2023-03-11T17:28:44.586Z,25.18
2023-03-11T17:29:44.565Z,25.18
2023-03-11T17:30:44.559Z,25.17
2023-03-11T17:31:44.532Z,25.16
2023-03-11T17:32:44.550Z,25.16
2023-03-11T17:33:44.530Z,25.14
2023-03-11T17:34:44.468Z,25.14
2023-03-11T17:35:44.506Z,25.14
2023-03-11T17:36:44.429Z,25.13
2023-03-11T17:37:44.422Z,25.12
2023-03-11T17:38:44.394Z,25.12
2023-03-11T17:39:44.367Z,25.11
2023-03-11T17:40:44.348Z,25.11
2023-03-11T17:41:44.337Z,25.10
2023-03-11T17:42:44.310Z,25.10
2023-03-11T17:43:44.285Z,25.09
2023-03-11T17:44:51.365Z,25.07
2023-03-11T17:45:45.236Z,25.07
2023-03-11T17:46:44.265Z,25.06
2023-03-11T17:47:44.194Z,25.07
2023-03-11T17:48:44.174Z,25.06
2023-03-11T17:49:44.172Z,25.06
2023-03-11T17:50:44.126Z,25.04
2023-03-11T17:51:44.117Z,25.04
2023-03-11T17:52:44.082Z,25.03
2023-03-11T17:53:45.873Z,25.03
2023-03-11T17:54:44.047Z,25.02
2023-03-11T17:55:44.026Z,25.02
2023-03-11T17:56:44.017Z,25.01
2023-03-11T17:57:45.816Z,25.01
2023-03-11T17:58:43.978Z,25.01
2023-03-11T17:59:43.971Z,25.00
2023-03-11T18:00:43.952Z,25.00
2023-03-11T18:01:43.954Z,25.00
2023-03-11T18:02:43.908Z,24.99
2023-03-11T18:03:43.934Z,24.98
2023-03-11T18:04:43.891Z,24.98
2023-03-11T18:05:43.864Z,24.97
2023-03-11T18:06:43.851Z,24.96
2023-03-11T18:07:43.835Z,24.95
2023-03-11T18:08:43.820Z,24.93
2023-03-11T18:09:43.801Z,24.94
2023-03-11T18:10:43.782Z,24.94
2023-03-11T18:11:43.768Z,24.93
2023-03-11T18:12:43.751Z,24.92
2023-03-11T18:13:43.732Z,24.91
2023-03-11T18:14:43.709Z,24.91
2023-03-11T18:15:43.703Z,24.90
2023-03-11T18:16:43.734Z,24.90
2023-03-11T18:17:43.655Z,24.90
2023-03-11T18:18:43.644Z,24.89
2023-03-11T18:19:43.621Z,24.89
2023-03-11T18:20:43.605Z,24.89
2023-03-11T18:21:43.596Z,24.88
2023-03-11T18:22:46.105Z,24.87
2023-03-11T18:23:43.541Z,24.86
2023-03-11T18:24:43.512Z,24.86
2023-03-11T18:25:43.498Z,24.87
2023-03-11T18:26:43.483Z,24.86
2023-03-11T18:27:43.480Z,24.86
2023-03-11T18:28:43.429Z,24.85
2023-03-11T18:29:43.424Z,24.85
2023-03-11T18:30:43.392Z,24.85
2023-03-11T18:31:43.483Z,24.84
2023-03-11T18:32:43.413Z,24.83
2023-03-11T18:33:43.334Z,24.82
2023-03-11T18:34:43.325Z,24.81
2023-03-11T18:35:43.313Z,24.82
2023-03-11T18:36:43.277Z,24.81
2023-03-11T18:37:43.264Z,24.80
2023-03-11T18:38:43.228Z,24.80
2023-03-11T18:39:43.218Z,24.79
2023-03-11T18:40:43.195Z,24.78
2023-03-11T18:41:43.165Z,24.77
2023-03-11T18:42:43.171Z,24.77
2023-03-11T18:43:43.137Z,24.77
2023-03-11T18:44:43.120Z,24.77
2023-03-11T18:45:43.125Z,24.77
2023-03-11T18:46:43.064Z,24.77
2023-03-11T18:47:43.040Z,24.77
2023-03-11T18:48:43.021Z,24.76
2023-03-11T18:49:42.992Z,24.76
2023-03-11T18:50:42.974Z,24.74
2023-03-11T18:51:42.948Z,24.73
2023-03-11T18:52:42.929Z,24.73
2023-03-11T18:53:43.116Z,24.73
2023-03-11T18:54:42.876Z,24.72
2023-03-11T18:55:42.876Z,24.72
2023-03-11T18:56:42.843Z,24.71
2023-03-11T18:57:42.825Z,24.71
2023-03-11T18:58:42.800Z,24.71
2023-03-11T18:59:42.780Z,24.70
2023-03-11T19:00:42.747Z,24.70
2023-03-11T19:01:42.726Z,24.70
2023-03-11T19:02:42.717Z,24.69
2023-03-11T19:03:42.686Z,24.69
2023-03-11T19:04:42.690Z,24.68
2023-03-11T19:05:42.645Z,24.67
2023-03-11T19:06:42.631Z,24.67
2023-03-11T19:07:42.610Z,24.67
2023-03-11T19:08:42.581Z,24.67
2023-03-11T19:09:42.569Z,24.67
2023-03-11T19:10:42.542Z,24.67
2023-03-11T19:11:42.527Z,24.66
2023-03-11T19:12:44.680Z,24.64
2023-03-11T19:13:47.950Z,24.63
2023-03-11T19:14:43.479Z,24.62
2023-03-11T19:15:42.458Z,24.63
2023-03-11T19:16:42.495Z,24.63
2023-03-11T19:17:42.509Z,24.63
2023-03-11T23:09:38.516Z,24.05
2023-03-11T23:10:38.491Z,24.05
2023-03-11T23:11:38.469Z,24.05
2023-03-11T23:12:38.449Z,24.06
2023-03-11T23:13:38.428Z,24.05
2023-03-11T23:14:44.933Z,24.05
2023-03-11T23:16:38.411Z,24.04
2023-03-11T23:17:38.375Z,24.04
2023-03-11T23:18:38.357Z,24.05
2023-03-11T23:19:38.325Z,24.04
2023-03-11T23:20:38.314Z,24.04
2023-03-11T23:21:38.287Z,24.04
2023-03-11T23:22:38.286Z,24.04
2023-03-11T23:23:38.252Z,24.04
2023-03-11T23:24:38.230Z,24.04
2023-03-11T23:25:38.217Z,24.04
2023-03-11T23:26:38.199Z,24.04
2023-03-11T23:27:38.187Z,24.04
2023-03-11T23:28:38.159Z,24.04
2023-03-11T23:29:38.148Z,24.04
2023-03-11T23:30:38.156Z,24.05
2023-03-11T23:31:38.107Z,24.03
2023-03-11T23:32:38.114Z,24.03
2023-03-11T23:33:38.072Z,24.03
2023-03-11T23:34:38.070Z,24.04
2023-03-11T23:35:38.081Z,24.03
2023-03-11T23:36:38.029Z,24.04
2023-03-11T23:37:38.003Z,24.04
2023-03-11T23:38:38.012Z,24.03
2023-03-11T23:39:37.973Z,24.03
2023-03-11T23:40:37.967Z,24.03
2023-03-11T23:41:38.011Z,24.04
2023-03-11T23:42:37.940Z,24.04
2023-03-11T23:43:37.923Z,24.03
2023-03-11T23:44:37.907Z,24.04
2023-03-11T23:45:37.890Z,24.03
2023-03-11T23:46:37.940Z,24.03
2023-03-11T23:47:37.873Z,24.03
2023-03-11T23:48:37.858Z,24.02
2023-03-11T23:49:37.845Z,24.01
2023-03-11T23:50:37.832Z,24.01
2023-03-11T23:51:37.822Z,24.01
2023-03-11T23:52:37.817Z,24.01
2023-03-11T23:53:37.809Z,24.01
2023-03-11T23:54:37.785Z,24.01
2023-03-11T23:55:37.781Z,24.01
2023-03-11T23:56:37.755Z,24.01
2023-03-11T23:57:37.767Z,24.02
2023-03-11T23:58:37.734Z,24.01
2023-03-11T23:59:37.726Z,24.00
